Latest Coastal Weather Observations for Barrow Island

IDW60701

Issued at 6:32 pm WST Monday 3 August 2015 (issued every 10 minutes, with the page automatically refreshed every 10 minutes)

About coastal observations | Map of coastal stations | Coastal observations for WA | Marine services | Other Formats
Station Details ID: 005094 Name: BARROW ISLAND AIRPORT Lat: -20.88 Lon: 115.41 Height: 6.4 m
Data from the previous 72 hours. | See also: Recent months at Barrow Island
Date/Time
WST
Temp

°C
Wind Pressure Rain
since 9am
mm
Weather Cloud Vis
km
Sea
Height
m
Swell
Dir
 
Speed
knots
Gust
knots
hPa Trend Height
m
Period
s
Dir
03/06:30pm 21.1 NNE 8 10 1019.2 - 0.0 - - - - - - -
03/06:00pm 22.2 NNE 12 15 1019.0 - 0.0 - - - - - - -
03/05:30pm 23.3 NNE 14 16 1018.8 - 0.0 - - - - - - -
03/05:00pm 23.9 NNE 15 18 1018.9 - 0.0 - - - - - - -
03/04:30pm 24.2 NE 16 19 1018.8 - 0.0 - - - - - - -
03/04:00pm 24.3 NE 17 19 1018.7 - 0.0 - - - - - - -
03/03:30pm 24.2 NE 18 20 1018.7 - 0.0 - - - - - - -
03/03:00pm 24.4 NE 19 22 1018.9 - 0.0 - - - - - - -
03/02:30pm 24.2 NE 18 21 1019.0 - 0.0 - - - - - - -
03/02:00pm 23.9 NE 18 21 1019.2 - 0.0 - - - - - - -
03/01:30pm 23.8 NE 19 22 1019.6 - 0.0 - - - - - - -
03/01:00pm 23.8 NE 19 23 1020.1 - 0.0 - - - - - - -
03/12:30pm 23.7 ENE 20 24 1020.4 - 0.0 - - - - - - -
03/12:00pm 23.5 ENE 21 25 1020.8 - 0.0 - - - - - - -
03/11:30am 23.3 ENE 20 25 1021.2 - 0.0 - - - - - - -
03/11:00am 23.1 ENE 22 25 1021.4 - 0.0 - - - - - - -
03/10:30am 23.1 ENE 24 29 1021.4 - 0.0 - - - - - - -
03/10:00am 22.9 ENE 25 30 1021.5 - 0.0 - - - - - - -
03/09:30am 22.8 ENE 24 29 1021.2 - 0.0 - - - - - - -
03/09:00am 22.6 E 21 26 1020.8 - 0.0 - - - - - - -
03/08:30am 22.5 E 18 22 1020.3 - 0.0 - - - - - - -
03/08:00am 22.3 E 13 16 1020.1 - 0.0 - - - - - - -
03/07:30am 21.7 E 11 13 1019.8 - 0.0 - - - - - - -
03/07:00am 21.4 ESE 12 13 1019.4 - 0.0 - - - - - - -
03/06:30am 21.3 ESE 11 13 1019.1 - 0.0 - - - - - - -
03/06:00am 20.5 SE 9 11 1018.6 - 0.0 - - - - - - -
03/05:30am 20.5 ESE 7 9 1018.2 - 0.0 - - - - - - -
03/05:00am 20.4 SE 8 9 1018.1 - 0.0 - - - - - - -
03/04:30am 20.5 SE 8 11 1017.9 - 0.0 - - - - - - -
03/04:00am 20.7 SE 7 9 1017.9 - 0.0 - - - - - - -
03/03:30am 20.7 SE 7 9 1017.8 - 0.0 - - - - - - -
03/03:00am 20.7 SSE 8 9 1017.9 - 0.0 - - - - - - -
03/02:30am 20.8 SSE 8 9 1018.0 - 0.0 - - - - - - -
03/02:00am 21.0 SSE 9 11 1018.2 - 0.0 - - - - - - -
03/01:30am 21.0 S 8 10 1018.0 - 0.0 - - - - - - -
03/01:00am 21.2 S 10 11 1018.1 - 0.0 - - - - - - -
03/12:30am 21.3 S 10 11 1018.5 - 0.0 - - - - - - -
03/12:00am 21.4 S 9 11 1018.6 - 0.0 - - - - - - -
 
Date/Time
WST
Temp

°C
Wind Pressure Rain
since 9am
mm
Weather Cloud Vis
km
Sea
Height
m
Swell
Dir
 
Speed
knots
Gust
knots
hPa Trend Height
m
Period
s
Dir
02/11:30pm 21.3 S 7 8 1018.9 - 0.0 - - - - - - -
02/11:00pm 20.9 S 7 10 1018.9 - 0.0 - - - - - - -
02/10:30pm 18.8 S 4 5 1019.2 - 0.0 - - - - - - -
02/10:00pm 18.3 SSW 5 6 1019.2 - 0.0 - - - - - - -
02/09:30pm 18.6 SW 5 6 1019.2 - 0.0 - - - - - - -
02/09:00pm 18.5 WSW 5 6 1019.3 - 0.0 - - - - - - -
02/08:30pm 18.8 W 8 8 1019.2 - 0.0 - - - - - - -
02/08:00pm 18.7 W 8 9 1019.1 - 0.0 - - - - - - -
02/07:30pm 19.3 W 9 9 1018.8 - 0.0 - - - - - - -
02/07:00pm 19.4 W 9 9 1018.6 - 0.0 - - - - - - -
02/06:30pm 20.3 W 8 9 1018.5 - 0.0 - - - - - - -
02/06:00pm 22.0 W 7 8 1018.5 - 0.0 - - - - - - -
02/05:30pm 24.4 SW 2 6 1018.1 - 0.0 - - - - - - -
02/05:00pm 24.0 E 3 4 1018.2 - 0.0 - - - - - - -
02/04:30pm 24.2 E 4 5 1018.1 - 0.0 - - - - - - -
02/04:00pm 24.4 E 5 6 1018.1 - 0.0 - - - - - - -
02/03:30pm 24.2 E 6 7 1018.1 - 0.0 - - - - - - -
02/03:00pm 24.4 E 6 7 1018.3 - 0.0 - - - - - - -
02/02:30pm 24.0 E 6 7 1018.6 - 0.0 - - - - - - -
02/02:00pm 24.0 E 6 7 1018.7 - 0.0 - - - - - - -
02/01:30pm 23.7 ESE 5 6 1018.9 - 0.0 - - - - - - -
02/01:00pm 23.4 SE 6 7 1019.2 - 0.0 - - - - - - -
02/12:30pm 23.0 SE 7 8 1019.4 - 0.0 - - - - - - -
02/12:00pm 23.2 SE 7 9 1019.6 - 0.0 - - - - - - -
02/11:30am 23.5 SE 8 10 1019.8 - 0.0 - - - - - - -
02/11:00am 22.9 S 9 11 1020.0 - 0.0 - - - - - - -
02/10:30am 22.4 S 8 9 1020.4 - 0.0 - - - - - - -
02/10:00am 22.4 S 8 10 1020.4 - 0.0 - - - - - - -
02/09:30am 22.2 S 10 12 1020.2 - 0.0 - - - - - - -
02/09:00am 21.7 S 11 14 1019.9 - 0.0 - - - - - - -
02/08:30am 21.3 S 12 14 1019.6 - 0.0 - - - - - - -
02/08:00am 20.9 SSE 13 15 1019.3 - 0.0 - - - - - - -
02/07:30am 20.5 SSE 13 15 1018.9 - 0.0 - - - - - - -
02/07:00am 20.2 S 13 16 1018.8 - 0.0 - - - - - - -
02/06:30am 20.3 S 13 16 1018.4 - 0.0 - - - - - - -
02/06:00am 20.3 S 13 15 1018.2 - 0.0 - - - - - - -
02/05:30am 20.4 S 13 16 1017.9 - 0.0 - - - - - - -
02/05:00am 20.5 S 14 15 1017.7 - 0.0 - - - - - - -
02/04:30am 20.5 S 13 15 1017.8 - 0.0 - - - - - - -
02/04:00am 20.8 S 13 15 1017.8 - 0.0 - - - - - - -
02/03:30am 20.8 S 13 15 1017.9 - 0.0 - - - - - - -
02/03:00am 21.0 S 14 17 1018.0 - 0.0 - - - - - - -
02/02:30am 21.1 S 15 16 1017.9 - 0.0 - - - - - - -
02/02:00am 21.6 S 15 17 1018.2 - 0.0 - - - - - - -
02/01:30am 21.5 SSW 13 16 1018.5 - 0.0 - - - - - - -
02/01:00am 21.5 SSW 15 19 1018.6 - 0.0 - - - - - - -
02/12:30am 21.8 SSW 16 19 1018.5 - 0.0 - - - - - - -
02/12:00am 22.0 SSW 18 20 1018.6 - 0.0 - - - - - - -
 
Date/Time
WST
Temp

°C
Wind Pressure Rain
since 9am
mm
Weather Cloud Vis
km
Sea
Height
m
Swell
Dir
 
Speed
knots
Gust
knots
hPa Trend Height
m
Period
s
Dir
01/11:30pm 22.1 SW 16 20 1018.7 - 0.0 - - - - - - -
01/11:28pm 22.1 SW 16 20 1018.7 - 0.0 - - - - - - -
01/11:00pm 20.1 W 7 10 1019.2 - 0.0 - - - - - - -
01/10:30pm 19.8 WSW 8 9 1019.0 - 0.0 - - - - - - -
01/10:00pm 19.0 WSW 8 9 1018.9 - 0.0 - - - - - - -
01/09:30pm 17.9 W 7 8 1018.9 - 0.0 - - - - - - -
01/09:00pm 19.1 WSW 8 9 1018.7 - 0.0 - - - - - - -
01/08:30pm 18.7 W 8 9 1018.5 - 0.0 - - - - - - -
01/08:00pm 20.1 W 9 10 1018.3 - 0.0 - - - - - - -
01/07:30pm 20.8 WSW 9 11 1018.1 - 0.0 - - - - - - -
01/07:00pm 21.2 SW 10 11 1017.8 - 0.0 - - - - - - -
01/06:30pm 21.5 SW 10 12 1017.7 - 0.0 - - - - - - -
01/06:00pm 22.3 SW 11 13 1017.5 - 0.0 - - - - - - -
01/05:30pm 23.0 SW 11 13 1017.4 - 0.0 - - - - - - -
01/05:00pm 23.8 SW 11 13 1017.3 - 0.0 - - - - - - -
01/04:30pm 23.9 SSW 10 13 1017.1 - 0.0 - - - - - - -
01/04:00pm 24.1 SW 10 12 1017.0 - 0.0 - - - - - - -
01/03:30pm 24.1 SSW 11 13 1017.3 - 0.0 - - - - - - -
01/03:00pm 24.0 SSW 12 15 1017.2 - 0.0 - - - - - - -
01/02:30pm 23.8 SSW 12 15 1017.5 - 0.0 - - - - - - -
01/02:00pm 23.8 SSW 13 15 1017.7 - 0.0 - - - - - - -
01/01:30pm 23.7 SSW 13 15 1017.7 - 0.0 - - - - - - -
01/01:00pm 23.6 S 14 17 1018.0 - 0.0 - - - - - - -
01/12:30pm 23.4 S 15 17 1018.2 - 0.0 - - - - - - -
01/12:00pm 23.3 S 17 19 1018.4 - 0.0 - - - - - - -
01/11:30am 22.9 S 17 19 1018.7 - 0.0 - - - - - - -
01/11:00am 22.9 S 19 21 1018.9 - 0.0 - - - - - - -
01/10:30am 23.0 S 18 21 1019.1 - 0.0 - - - - - - -
01/10:00am 22.7 S 17 19 1019.4 - 0.0 - - - - - - -
01/09:30am 22.1 S 17 19 1019.4 - 0.0 - - - - - - -
01/09:00am 21.8 S 16 19 1019.0 - 0.0 - - - - - - -
01/08:30am 21.5 SSE 15 17 1018.7 - 0.0 - - - - - - -
01/08:00am 21.2 S 15 18 1018.3 - 0.0 - - - - - - -
01/07:30am 21.0 S 14 16 1018.1 - 0.0 - - - - - - -
01/07:00am 21.0 S 14 18 1017.9 - 0.0 - - - - - - -
01/06:30am 20.8 S 12 15 1017.5 - 0.0 - - - - - - -
01/06:00am 20.9 S 12 15 1017.1 - 0.0 - - - - - - -
01/05:30am 21.0 S 14 16 1016.8 - 0.0 - - - - - - -
01/05:00am 21.1 S 14 16 1016.6 - 0.0 - - - - - - -
01/04:30am 21.2 S 15 17 1016.5 - 0.0 - - - - - - -
01/04:00am 21.5 S 17 20 1016.4 - 0.0 - - - - - - -
01/03:30am 21.6 S 16 20 1016.4 - 0.0 - - - - - - -
01/03:00am 21.7 SSW 16 19 1016.6 - 0.0 - - - - - - -
01/02:30am 21.9 SSW 15 17 1016.6 - 0.0 - - - - - - -
01/02:00am 22.0 SSW 14 17 1016.7 - 0.0 - - - - - - -
01/01:30am 22.2 SSW 14 16 1016.9 - 0.0 - - - - - - -
01/01:00am 22.3 SSW 16 18 1016.9 - 0.0 - - - - - - -
01/12:30am 22.7 SSW 16 17 1017.1 - 0.0 - - - - - - -
01/12:00am 22.8 SSW 14 16 1017.3 - 0.0 - - - - - - -
 
Date/Time
WST
Temp

°C
Wind Pressure Rain
since 9am
mm
Weather Cloud Vis
km
Sea
Height
m
Swell
Dir
 
Speed
knots
Gust
knots
hPa Trend Height
m
Period
s
Dir
31/11:30pm 22.4 SW 14 16 1017.2 - 0.0 - - - - - - -
31/11:00pm 22.3 SW 13 16 1017.2 - 0.0 - - - - - - -
31/10:30pm 22.2 SW 11 13 1017.2 - 0.0 - - - - - - -
31/10:00pm 22.3 WSW 13 16 1017.1 - 0.0 - - - - - - -
31/09:30pm 22.4 SW 13 16 1017.0 - 0.0 - - - - - - -
31/09:00pm 22.3 SW 12 14 1017.0 - 0.0 - - - - - - -
31/08:30pm 22.3 WSW 9 12 1016.9 - 0.0 - - - - - - -
31/08:00pm 22.0 WSW 8 11 1016.5 - 0.0 - - - - - - -
31/07:30pm 22.4 WSW 11 13 1016.3 - 0.0 - - - - - - -
31/07:00pm 22.2 WSW 9 11 1016.0 - 0.0 - - - - - - -

Other Formats:

Comma delimited format used in spreadsheet applications
http://www.bom.gov.au/fwo/IDW60701/IDW60701.95304.axf

JavaScript Object Notation format (JSON) in row-major order
http://www.bom.gov.au/fwo/IDW60701/IDW60701.95304.json